createdAt,value
2019-05-22T00:05:17.394Z,35.60
2019-05-22T00:07:48.807Z,40.85
2019-05-22T00:10:24.471Z,42.03
2019-05-22T00:12:55.058Z,37.25
2019-05-22T00:15:24.965Z,36.68
2019-05-22T00:20:26.041Z,43.70
2019-05-22T00:22:58.033Z,40.35
2019-05-22T00:25:29.282Z,38.10
2019-05-22T00:27:59.759Z,37.08
2019-05-22T00:30:32.384Z,36.63
2019-05-22T00:33:02.362Z,38.50
2019-05-22T00:35:32.042Z,35.92
2019-05-22T00:38:04.690Z,35.28
2019-05-22T00:40:37.108Z,33.13
2019-05-22T00:43:13.802Z,33.70
2019-05-22T00:45:40.278Z,36.85
2019-05-22T00:48:11.727Z,33.13
2019-05-22T00:50:55.531Z,37.75
2019-05-22T00:53:47.403Z,38.40
2019-05-22T00:56:38.354Z,38.92
2019-05-22T01:01:54.570Z,35.45
2019-05-22T01:04:25.768Z,34.50
2019-05-22T01:06:58.024Z,37.25
2019-05-22T01:09:40.074Z,40.95
2019-05-22T01:12:17.174Z,43.05
2019-05-22T01:14:47.087Z,28.95
2019-05-22T01:19:48.791Z,23.57
2019-05-22T01:22:20.450Z,25.60
2019-05-22T01:24:53.801Z,27.05
2019-05-22T01:27:26.072Z,26.68
2019-05-22T01:29:57.326Z,26.80
2019-05-22T01:32:38.017Z,29.45
2019-05-22T01:35:10.387Z,29.95
2019-05-22T01:37:42.062Z,27.82
2019-05-22T01:40:20.498Z,36.33
2019-05-22T01:42:55.239Z,37.03
2019-05-22T01:45:25.352Z,37.40
2019-05-22T01:48:02.281Z,43.02
2019-05-22T01:50:44.441Z,40.08
2019-05-22T01:53:15.790Z,38.95
2019-05-22T01:55:45.879Z,39.53
2019-05-22T01:58:16.890Z,40.78
2019-05-22T02:00:47.841Z,41.28
2019-05-22T02:03:20.011Z,37.85
2019-05-22T02:05:49.801Z,38.67
2019-05-22T02:10:52.680Z,37.30
2019-05-22T02:13:28.510Z,41.98
2019-05-22T02:15:58.332Z,38.58
2019-05-22T02:20:58.061Z,36.45
2019-05-22T02:23:27.756Z,36.35
2019-05-22T02:25:57.888Z,35.08
2019-05-22T02:28:28.014Z,37.03
2019-05-22T02:30:57.636Z,40.40
2019-05-22T02:33:27.748Z,41.80
2019-05-22T02:35:58.131Z,39.63
2019-05-22T02:38:29.358Z,41.37
2019-05-22T02:40:59.182Z,39.80
2019-05-22T02:43:29.102Z,38.75
2019-05-22T02:48:28.174Z,40.67
2019-05-22T02:53:28.655Z,39.10
2019-05-22T02:55:58.652Z,40.30
2019-05-22T02:58:29.032Z,40.48
2019-05-22T03:01:02.753Z,41.80
2019-05-22T03:03:33.967Z,39.83
2019-05-22T03:06:06.682Z,40.58
2019-05-22T03:08:59.715Z,39.92
2019-05-22T03:11:39.731Z,38.42
2019-05-22T03:14:11.859Z,41.02
2019-05-22T03:17:00.565Z,39.55
2019-05-22T03:19:42.865Z,39.63
2019-05-22T03:22:30.958Z,37.35
2019-05-22T03:25:05.092Z,37.75
2019-05-22T03:27:40.096Z,38.30
2019-05-22T03:30:24.752Z,38.75
2019-05-22T03:32:56.301Z,39.55
2019-05-22T03:35:28.149Z,39.40
2019-05-22T03:37:59.266Z,38.98
2019-05-22T03:40:29.965Z,36.93
2019-05-22T03:43:02.144Z,38.17
2019-05-22T03:45:32.980Z,38.92
2019-05-22T03:48:05.155Z,36.83
2019-05-22T03:50:36.046Z,38.45
2019-05-22T03:53:17.852Z,40.33
2019-05-22T03:55:49.234Z,35.68
2019-05-22T03:58:19.803Z,36.58
2019-05-22T04:00:52.257Z,37.55
2019-05-22T04:03:23.800Z,36.63
2019-05-22T04:05:54.396Z,38.00
2019-05-22T04:08:26.657Z,38.67
2019-05-22T04:10:59.980Z,37.88
2019-05-22T04:13:29.682Z,39.90
2019-05-22T04:16:00.573Z,37.67
2019-05-22T04:18:31.840Z,38.48
2019-05-22T04:21:02.694Z,36.63
2019-05-22T04:23:32.648Z,39.27
2019-05-22T04:26:04.203Z,38.15
2019-05-22T04:28:36.928Z,38.73
2019-05-22T04:31:07.382Z,39.75
2019-05-22T04:33:37.203Z,38.23
2019-05-22T04:38:37.971Z,36.38
2019-05-22T04:41:10.250Z,37.23
2019-05-22T04:43:40.116Z,38.10
2019-05-22T04:48:40.100Z,38.00
2019-05-22T04:51:27.339Z,36.30
2019-05-22T04:53:57.596Z,38.15
2019-05-22T04:56:28.748Z,37.95
2019-05-22T04:58:59.652Z,37.28
2019-05-22T05:01:30.467Z,39.60
2019-05-22T05:04:00.762Z,38.70
2019-05-22T05:06:31.416Z,34.78
2019-05-22T05:09:01.385Z,37.08
2019-05-22T05:11:31.018Z,36.73
2019-05-22T05:14:00.735Z,37.60
2019-05-22T05:16:30.338Z,37.23
2019-05-22T05:19:00.341Z,38.05
2019-05-22T05:21:30.067Z,36.83
2019-05-22T05:23:59.805Z,36.45
2019-05-22T05:26:31.681Z,37.08
2019-05-22T05:29:02.146Z,38.25
2019-05-22T05:31:31.944Z,36.60
2019-05-22T05:34:19.543Z,36.10
2019-05-22T05:36:49.333Z,36.35
2019-05-22T05:41:58.747Z,34.92
2019-05-22T05:44:28.468Z,35.48
2019-05-22T05:46:58.560Z,37.42
2019-05-22T05:49:29.836Z,37.70
2019-05-22T05:51:59.842Z,37.50
2019-05-22T05:54:30.469Z,36.95
2019-05-22T05:57:19.729Z,38.42
2019-05-22T05:59:49.470Z,39.50
2019-05-22T06:02:20.922Z,39.00
2019-05-22T06:04:52.203Z,37.40
2019-05-22T06:07:23.479Z,37.23
2019-05-22T06:09:56.116Z,36.68
2019-05-22T06:12:26.004Z,37.53
2019-05-22T06:17:36.434Z,36.53
2019-05-22T06:20:17.137Z,36.20
2019-05-22T06:23:07.153Z,38.55
2019-05-22T06:25:37.504Z,37.98
2019-05-22T06:28:09.559Z,38.73
2019-05-22T06:30:42.401Z,37.83
2019-05-22T06:33:17.116Z,38.90
2019-05-22T06:35:48.532Z,39.20
2019-05-22T06:38:48.232Z,38.05
2019-05-22T06:41:20.236Z,38.13
2019-05-22T06:43:52.857Z,36.85
2019-05-22T06:46:44.879Z,39.18
2019-05-22T06:49:35.330Z,37.67
2019-05-22T06:52:07.308Z,38.45
2019-05-22T06:54:45.356Z,37.20
2019-05-22T06:57:16.843Z,39.10
2019-05-22T07:00:11.433Z,36.58
2019-05-22T07:02:26.148Z,38.05
2019-05-22T07:04:55.919Z,38.05
2019-05-22T07:09:56.247Z,37.75
2019-05-22T07:21:44.668Z,32.35
2019-05-22T07:24:14.199Z,33.00
2019-05-22T07:26:45.800Z,33.15
2019-05-22T07:29:16.983Z,33.85
2019-05-22T07:31:47.429Z,33.38
2019-05-22T07:34:17.774Z,34.95
2019-05-22T07:36:47.467Z,33.95
2019-05-22T07:41:46.428Z,34.78
2019-05-22T07:44:16.008Z,35.78
2019-05-22T07:46:45.968Z,35.45
2019-05-22T07:49:15.866Z,36.88
2019-05-22T07:51:55.908Z,34.45
2019-05-22T07:54:17.710Z,34.83
2019-05-22T07:56:47.790Z,33.48
2019-05-22T07:59:17.494Z,33.65
2019-05-22T08:04:18.174Z,35.43
2019-05-22T08:06:47.979Z,35.00
2019-05-22T08:09:20.038Z,33.67
2019-05-22T08:11:50.272Z,35.00
2019-05-22T08:14:21.343Z,35.63
2019-05-22T08:16:51.367Z,36.25
2019-05-22T08:19:21.748Z,34.98
2019-05-22T08:22:06.129Z,34.67
2019-05-22T08:24:24.037Z,34.15
2019-05-22T08:26:55.081Z,35.17
2019-05-22T08:29:25.620Z,35.17
2019-05-22T08:31:55.398Z,33.63
2019-05-22T08:34:29.058Z,35.31
2019-05-22T08:36:59.812Z,35.33
2019-05-22T08:39:29.822Z,35.17
2019-05-22T08:41:59.490Z,35.13
2019-05-22T08:46:59.702Z,35.25
2019-05-22T08:49:30.063Z,33.70
2019-05-22T08:52:00.243Z,34.83
2019-05-22T08:54:31.679Z,31.70
2019-05-22T08:57:02.614Z,33.63
2019-05-22T08:59:33.466Z,34.43
2019-05-22T09:02:04.110Z,30.92
2019-05-22T09:04:34.959Z,26.85
2019-05-22T09:07:04.831Z,28.02
2019-05-22T09:09:34.734Z,29.18
2019-05-22T09:12:05.585Z,29.82
2019-05-22T09:14:35.364Z,30.52
2019-05-22T09:17:06.937Z,28.77
2019-05-22T09:19:36.688Z,28.77
2019-05-22T09:24:39.150Z,28.25
2019-05-22T09:27:09.220Z,26.35
2019-05-22T09:29:38.886Z,30.77
2019-05-22T09:34:39.292Z,20.72
2019-05-22T09:37:09.551Z,18.48
2019-05-22T09:39:39.354Z,16.75
2019-05-22T09:42:09.085Z,15.60
2019-05-22T09:44:39.207Z,18.02
2019-05-22T09:47:09.795Z,17.37
2019-05-22T09:49:40.756Z,17.48
2019-05-22T09:52:10.970Z,16.45
2019-05-22T09:54:42.293Z,16.30
2019-05-22T09:57:12.262Z,15.80
2019-05-22T09:59:42.144Z,15.63
2019-05-22T10:02:12.311Z,16.73
2019-05-22T10:04:42.115Z,16.87
2019-05-22T10:07:11.911Z,16.97
2019-05-22T10:09:41.917Z,14.05
2019-05-22T10:12:11.786Z,11.83
2019-05-22T10:14:41.976Z,10.93
2019-05-22T10:17:12.160Z,10.08
2019-05-22T10:19:42.755Z,9.00
2019-05-22T10:22:12.671Z,8.48
2019-05-22T10:24:43.545Z,10.00
2019-05-22T10:27:13.864Z,9.10
2019-05-22T10:29:43.568Z,7.67
2019-05-22T10:32:13.255Z,8.08
2019-05-22T10:34:42.963Z,8.15
2019-05-22T10:37:12.884Z,8.90
2019-05-22T10:39:42.747Z,7.58
2019-05-22T10:42:12.578Z,8.83
2019-05-22T10:44:42.308Z,8.90
2019-05-22T10:47:12.904Z,8.93
2019-05-22T10:49:42.684Z,7.50
2019-05-22T10:52:12.981Z,8.75
2019-05-22T10:54:42.628Z,8.10
2019-05-22T10:59:41.385Z,9.18
2019-05-22T11:04:41.237Z,8.25
2019-05-22T11:07:12.246Z,8.83
2019-05-22T11:09:42.102Z,8.70
2019-05-22T11:12:13.102Z,8.58
2019-05-22T11:14:46.644Z,8.95
2019-05-22T11:17:16.407Z,8.48
2019-05-22T11:19:46.163Z,8.43
2019-05-22T11:22:19.285Z,8.45
2019-05-22T11:24:48.920Z,10.13
2019-05-22T11:27:18.958Z,9.88
2019-05-22T11:29:49.442Z,9.88
2019-05-22T11:32:19.069Z,9.65
2019-05-22T11:37:17.932Z,9.85
2019-05-22T11:39:47.973Z,8.88
2019-05-22T11:42:18.857Z,10.08
2019-05-22T11:44:50.111Z,9.33
2019-05-22T11:47:19.877Z,9.28
2019-05-22T11:49:49.979Z,10.18
2019-05-22T11:52:20.762Z,9.45
2019-05-22T11:54:50.481Z,10.03
2019-05-22T11:57:21.997Z,9.65
2019-05-22T11:59:51.566Z,8.70
2019-05-22T12:04:49.972Z,9.33
2019-05-22T12:09:58.591Z,8.58
2019-05-22T12:12:28.446Z,8.73
2019-05-22T12:14:58.321Z,9.35
2019-05-22T12:17:37.884Z,11.00
2019-05-22T12:19:59.336Z,9.88
2019-05-22T12:22:29.000Z,9.05
2019-05-22T12:24:59.525Z,9.60
2019-05-22T12:27:29.773Z,9.43
2019-05-22T12:29:59.765Z,8.83
2019-05-22T12:32:31.453Z,10.15
2019-05-22T12:35:01.629Z,9.58
2019-05-22T12:37:31.972Z,10.35
2019-05-22T12:40:03.541Z,9.70
2019-05-22T12:42:34.474Z,9.98
2019-05-22T12:45:07.384Z,10.03
2019-05-22T12:47:51.471Z,10.05
2019-05-22T12:50:21.549Z,10.45
2019-05-22T12:52:51.294Z,9.80
2019-05-22T12:55:21.615Z,9.53
2019-05-22T12:57:51.705Z,11.08
2019-05-22T13:00:24.058Z,10.68
2019-05-22T13:02:58.783Z,10.28
2019-05-22T13:08:11.552Z,10.60
2019-05-22T13:10:41.774Z,8.78
2019-05-22T13:16:14.297Z,10.53
2019-05-22T13:18:45.085Z,8.95
2019-05-22T13:21:18.529Z,10.15
2019-05-22T13:23:49.675Z,10.38
2019-05-22T13:26:19.307Z,11.85
2019-05-22T13:28:49.194Z,11.53
2019-05-22T13:31:19.521Z,9.55
2019-05-22T13:33:50.867Z,11.25
2019-05-22T13:36:21.202Z,9.83
2019-05-22T13:38:50.968Z,9.55
2019-05-22T13:41:21.031Z,9.90
2019-05-22T13:43:51.405Z,8.88
2019-05-22T13:46:21.252Z,10.48
2019-05-22T13:48:56.862Z,9.33
2019-05-22T13:51:35.990Z,8.95
2019-05-22T13:56:40.642Z,9.30
2019-05-22T14:02:00.032Z,8.85
2019-05-22T14:04:29.803Z,8.63
2019-05-22T14:06:59.775Z,8.60
2019-05-22T14:09:30.630Z,8.68
2019-05-22T14:12:00.623Z,8.93
2019-05-22T14:14:30.416Z,9.33
2019-05-22T14:17:00.306Z,8.33
2019-05-22T14:19:33.386Z,7.97
2019-05-22T14:22:07.876Z,7.95
2019-05-22T14:27:31.664Z,8.23
2019-05-22T14:33:04.418Z,9.55
2019-05-22T14:35:46.881Z,9.20
2019-05-22T14:38:05.540Z,8.60
2019-05-22T14:40:37.506Z,8.68
2019-05-22T14:43:07.869Z,8.70
2019-05-22T14:45:38.221Z,7.85
2019-05-22T14:48:08.485Z,8.78
2019-05-22T14:50:40.044Z,9.10
2019-05-22T14:53:11.526Z,8.18
2019-05-22T14:55:42.974Z,7.65
2019-05-22T14:58:13.139Z,7.80
2019-05-22T15:01:02.836Z,8.50
2019-05-22T15:03:32.551Z,8.05
2019-05-22T15:06:02.736Z,7.83
2019-05-22T15:08:32.488Z,9.58
2019-05-22T15:11:02.569Z,8.80
2019-05-22T15:13:32.559Z,8.58
2019-05-22T15:16:02.266Z,7.58
2019-05-22T15:18:32.435Z,8.55
2019-05-22T15:21:03.868Z,9.00
2019-05-22T15:23:34.028Z,8.53
2019-05-22T15:26:04.055Z,9.18
2019-05-22T15:28:34.330Z,9.20
2019-05-22T15:31:05.097Z,8.85
2019-05-22T15:33:35.059Z,8.20
2019-05-22T15:36:06.879Z,9.88
2019-05-22T15:38:41.100Z,8.75
2019-05-22T15:41:11.585Z,9.00
2019-05-22T15:43:43.453Z,9.08
2019-05-22T15:46:15.698Z,8.68
2019-05-22T15:48:47.709Z,7.97
2019-05-22T15:51:21.394Z,8.05
2019-05-22T15:53:52.860Z,8.25
2019-05-22T15:56:23.092Z,8.40
2019-05-22T15:58:54.931Z,8.53
2019-05-22T16:01:25.614Z,8.50
2019-05-22T16:03:56.841Z,8.03
2019-05-22T16:06:28.298Z,8.78
2019-05-22T16:08:58.440Z,9.03
2019-05-22T16:11:29.939Z,9.10
2019-05-22T16:14:00.993Z,9.88
2019-05-22T16:16:32.368Z,8.75
2019-05-22T16:19:05.167Z,9.08
2019-05-22T16:21:37.323Z,8.75
2019-05-22T16:24:07.918Z,9.65
2019-05-22T16:26:38.467Z,8.53
2019-05-22T16:29:08.814Z,8.88
2019-05-22T16:31:40.146Z,8.50
2019-05-22T16:34:10.478Z,9.08
2019-05-22T16:36:53.537Z,9.50
2019-05-22T16:39:24.028Z,9.48
2019-05-22T16:44:38.925Z,8.95
2019-05-22T16:47:09.856Z,9.15
2019-05-22T16:49:41.234Z,9.13
2019-05-22T16:52:11.464Z,9.30
2019-05-22T16:54:41.870Z,10.28
2019-05-22T16:57:13.019Z,9.70
2019-05-22T16:59:42.897Z,9.30
2019-05-22T17:02:17.026Z,9.50
2019-05-22T17:04:47.526Z,9.73
2019-05-22T17:07:18.507Z,8.65
2019-05-22T17:09:49.784Z,9.00
2019-05-22T17:12:20.427Z,10.03
2019-05-22T17:14:51.308Z,8.80
2019-05-22T17:17:20.977Z,10.08
2019-05-22T17:19:50.928Z,9.48
2019-05-22T17:22:20.822Z,8.83
2019-05-22T17:24:50.891Z,8.60
2019-05-22T17:27:21.598Z,8.58
2019-05-22T17:29:52.178Z,8.75
2019-05-22T17:32:23.875Z,8.80
2019-05-22T17:34:53.779Z,8.58
2019-05-22T17:37:25.296Z,8.68
2019-05-22T17:39:55.151Z,8.30
2019-05-22T17:42:27.459Z,8.10
2019-05-22T17:44:58.693Z,7.83
2019-05-22T17:47:30.793Z,8.78
2019-05-22T17:50:03.197Z,8.43
2019-05-22T17:52:33.312Z,8.38
2019-05-22T17:55:04.862Z,8.20
2019-05-22T17:57:34.882Z,9.23
2019-05-22T18:00:14.008Z,8.68
2019-05-22T18:02:44.090Z,10.18
2019-05-22T18:05:14.944Z,10.10
2019-05-22T18:07:45.816Z,9.93
2019-05-22T18:10:15.781Z,11.35
2019-05-22T18:12:45.539Z,10.93
2019-05-22T18:17:45.606Z,11.48
2019-05-22T18:20:16.135Z,9.35
2019-05-22T18:22:46.188Z,10.60
2019-05-22T18:25:18.744Z,10.41
2019-05-22T18:28:04.529Z,10.40
2019-05-22T18:30:47.689Z,11.35
2019-05-22T18:33:25.625Z,12.30
2019-05-22T18:35:59.507Z,10.38
2019-05-22T18:38:44.855Z,10.25
2019-05-22T18:41:15.034Z,9.50
2019-05-22T18:43:44.925Z,10.08
2019-05-22T18:46:14.786Z,10.05
2019-05-22T18:48:48.323Z,9.23
2019-05-22T18:51:18.265Z,9.38
2019-05-22T18:53:48.845Z,9.55
2019-05-22T18:56:18.743Z,10.15
2019-05-22T18:58:48.524Z,9.78
2019-05-22T19:03:47.409Z,10.13
2019-05-22T19:06:29.662Z,10.00
2019-05-22T19:08:49.162Z,10.03
2019-05-22T19:11:19.183Z,9.08
2019-05-22T19:13:49.026Z,9.80
2019-05-22T19:16:18.714Z,9.33
2019-05-22T19:21:17.206Z,8.48
2019-05-22T19:26:32.272Z,7.93
2019-05-22T19:29:02.574Z,8.60
2019-05-22T19:31:45.453Z,7.22
2019-05-22T19:34:20.306Z,7.55
2019-05-22T19:36:50.060Z,8.30
2019-05-22T19:42:05.704Z,7.90
2019-05-22T19:44:37.136Z,8.63
2019-05-22T19:47:09.745Z,7.60
2019-05-22T19:49:43.746Z,8.48
2019-05-22T19:52:14.564Z,7.83
2019-05-22T19:54:44.460Z,7.33
2019-05-22T19:57:14.890Z,7.40
2019-05-22T19:59:44.851Z,7.70
2019-05-22T20:02:16.963Z,7.78
2019-05-22T20:04:47.783Z,8.88
2019-05-22T20:09:48.465Z,16.05
2019-05-22T20:12:18.077Z,15.95
2019-05-22T20:14:47.921Z,14.70
2019-05-22T20:17:17.834Z,16.02
2019-05-22T20:22:21.920Z,11.43
2019-05-22T20:24:51.754Z,10.48
2019-05-22T20:27:21.821Z,11.78
2019-05-22T20:29:51.769Z,11.33
2019-05-22T20:32:22.305Z,12.73
2019-05-22T20:34:51.938Z,13.08
2019-05-22T20:37:22.487Z,14.13
2019-05-22T20:39:54.863Z,15.00
2019-05-22T20:54:56.908Z,13.10
2019-05-22T21:03:15.984Z,13.40
2019-05-22T21:05:53.240Z,13.88
2019-05-22T21:08:25.258Z,13.75
2019-05-22T21:10:59.060Z,14.38
2019-05-22T21:13:31.873Z,14.80
2019-05-22T21:16:03.230Z,15.13
2019-05-22T21:18:37.143Z,16.00
2019-05-22T21:21:08.436Z,15.70
2019-05-22T21:23:38.859Z,15.88
2019-05-22T21:26:09.960Z,15.13
2019-05-22T21:28:40.355Z,15.50
2019-05-22T21:31:10.214Z,15.65
2019-05-22T21:33:40.044Z,15.00
2019-05-22T21:38:39.939Z,17.98
2019-05-22T21:41:10.163Z,19.17
2019-05-22T21:43:40.110Z,20.25
2019-05-22T21:46:10.216Z,21.12
2019-05-22T21:48:40.002Z,22.48
2019-05-22T21:53:38.554Z,21.90
2019-05-22T21:56:08.987Z,20.77
2019-05-22T21:58:39.072Z,21.65
2019-05-22T22:01:12.588Z,20.62
2019-05-22T22:03:54.562Z,22.62
2019-05-22T22:06:24.619Z,21.40
2019-05-22T22:08:54.254Z,20.65
2019-05-22T22:11:25.952Z,21.77
2019-05-22T22:13:56.122Z,22.50
2019-05-22T22:16:25.822Z,21.27
2019-05-22T22:21:25.527Z,20.97
2019-05-22T22:23:55.375Z,22.17
2019-05-22T22:28:56.275Z,23.52
2019-05-22T22:31:27.561Z,22.58
2019-05-22T22:34:00.449Z,24.18
2019-05-22T22:36:30.222Z,24.12
2019-05-22T22:38:59.891Z,24.40
2019-05-22T22:41:29.520Z,22.02
2019-05-22T22:43:59.307Z,21.68
2019-05-22T22:49:13.454Z,21.27
2019-05-22T22:51:45.803Z,21.42
2019-05-22T22:54:15.474Z,22.42
2019-05-22T22:56:45.639Z,21.73
2019-05-22T22:59:15.910Z,21.05
2019-05-22T23:01:48.603Z,19.75
2019-05-22T23:04:20.067Z,20.75
2019-05-22T23:06:50.103Z,21.73
2019-05-22T23:09:19.741Z,20.52
2019-05-22T23:11:49.960Z,21.17
2019-05-22T23:14:23.018Z,21.25
2019-05-22T23:16:53.339Z,20.55
2019-05-22T23:19:38.285Z,22.22
2019-05-22T23:22:08.444Z,20.08
2019-05-22T23:24:40.344Z,20.02
2019-05-22T23:27:10.807Z,20.82
2019-05-22T23:29:42.386Z,20.52
2019-05-22T23:32:14.312Z,21.42
2019-05-22T23:34:44.848Z,19.85
2019-05-22T23:37:15.148Z,20.27
2019-05-22T23:39:46.404Z,22.05
2019-05-22T23:42:19.229Z,22.20
2019-05-22T23:44:50.750Z,22.60
2019-05-22T23:47:20.456Z,22.52
2019-05-22T23:49:50.750Z,21.48
2019-05-22T23:52:20.738Z,22.75
2019-05-22T23:54:51.589Z,22.20
2019-05-22T23:57:22.768Z,21.80
2019-05-22T23:59:54.374Z,21.57
